createdAt,value
2022-09-22T00:01:04.265Z,9.22
2022-09-22T00:06:11.871Z,9.21
2022-09-22T00:11:19.073Z,9.17
2022-09-22T00:16:24.256Z,9.16
2022-09-22T00:21:30.988Z,9.14
2022-09-22T00:26:32.465Z,9.13
2022-09-22T00:31:34.042Z,9.12
2022-09-22T00:36:35.605Z,9.10
2022-09-22T00:41:41.877Z,9.09
2022-09-22T00:46:45.896Z,9.11
2022-09-22T00:51:47.656Z,9.15
2022-09-22T00:57:15.895Z,9.15
2022-09-22T01:02:17.447Z,9.16
2022-09-22T01:07:25.865Z,9.17
2022-09-22T01:12:29.589Z,9.20
2022-09-22T01:17:38.850Z,9.23
2022-09-22T01:22:49.430Z,9.23
2022-09-22T01:28:25.180Z,9.30
2022-09-22T01:33:39.392Z,9.36
2022-09-22T01:39:07.189Z,9.63
2022-09-22T01:44:32.382Z,9.65
2022-09-22T01:49:38.515Z,9.64
2022-09-22T01:54:45.354Z,9.66
2022-09-22T01:59:54.133Z,9.63
2022-09-22T02:05:00.002Z,9.58
2022-09-22T02:10:07.404Z,9.55
2022-09-22T02:15:32.469Z,9.56
2022-09-22T02:20:34.425Z,9.53
2022-09-22T02:25:38.288Z,9.49
2022-09-22T02:30:47.422Z,9.47
2022-09-22T02:36:23.679Z,9.46
2022-09-22T02:41:38.170Z,9.43
2022-09-22T02:46:49.354Z,9.34
2022-09-22T02:51:52.701Z,9.29
2022-09-22T02:56:54.724Z,9.20
2022-09-22T03:01:56.192Z,9.16
2022-09-22T03:06:57.673Z,9.13
2022-09-22T03:11:59.165Z,9.12
2022-09-22T03:17:00.630Z,9.09
2022-09-22T03:22:02.091Z,9.07
2022-09-22T03:27:03.728Z,9.08
2022-09-22T03:32:05.355Z,9.06
2022-09-22T03:37:06.823Z,9.04
2022-09-22T03:42:08.569Z,9.03
2022-09-22T03:47:10.092Z,9.00
2022-09-22T03:52:11.612Z,9.00
2022-09-22T03:57:13.150Z,8.97
2022-09-22T04:02:14.685Z,8.97
2022-09-22T04:07:16.155Z,8.95
2022-09-22T04:12:17.611Z,8.91
2022-09-22T04:17:20.360Z,8.92
2022-09-22T04:22:21.934Z,8.91
2022-09-22T04:27:24.157Z,8.88
2022-09-22T04:32:25.631Z,8.86
2022-09-22T04:37:27.134Z,8.88
2022-09-22T04:42:28.614Z,8.89
2022-09-22T04:47:30.158Z,8.91
2022-09-22T04:52:31.609Z,8.86
2022-09-22T04:57:33.272Z,8.87
2022-09-22T05:02:35.516Z,8.84
2022-09-22T05:07:43.394Z,8.79
2022-09-22T05:12:45.425Z,8.77
2022-09-22T05:17:48.328Z,8.77
2022-09-22T05:22:49.881Z,8.73
2022-09-22T05:27:53.656Z,8.70
2022-09-22T05:32:55.177Z,8.68
2022-09-22T05:37:57.797Z,8.66
2022-09-22T05:42:59.303Z,8.65
2022-09-22T05:48:00.906Z,8.66
2022-09-22T05:53:07.489Z,8.66
2022-09-22T05:58:12.439Z,8.70
2022-09-22T06:03:13.961Z,8.73
2022-09-22T06:08:15.487Z,8.78
2022-09-22T06:13:17.279Z,8.82
2022-09-22T06:18:24.104Z,8.89
2022-09-22T06:23:26.542Z,8.97
2022-09-22T06:28:28.053Z,9.07
2022-09-22T06:33:30.072Z,9.19
2022-09-22T06:38:31.968Z,9.33
2022-09-22T06:43:37.785Z,9.47
2022-09-22T06:48:39.597Z,9.63
2022-09-22T06:53:41.065Z,9.85
2022-09-22T06:59:08.386Z,10.07
2022-09-22T07:04:05.372Z,10.37
2022-09-22T07:09:09.113Z,11.41
2022-09-22T07:14:12.471Z,12.07
2022-09-22T07:19:15.152Z,12.40
2022-09-22T07:24:16.647Z,13.19
2022-09-22T07:29:18.099Z,13.45
2022-09-22T07:34:19.564Z,13.69
2022-09-22T07:39:21.036Z,13.61
2022-09-22T07:44:44.473Z,13.44
2022-09-22T07:49:46.227Z,13.32
2022-09-22T07:54:47.684Z,13.30
2022-09-22T07:59:49.143Z,13.37
2022-09-22T08:04:50.630Z,13.42
2022-09-22T08:09:52.373Z,13.50
2022-09-22T08:14:54.024Z,13.57
2022-09-22T08:19:56.308Z,13.68
2022-09-22T08:24:57.757Z,13.82
2022-09-22T08:29:59.230Z,13.98
2022-09-22T08:35:00.699Z,14.04
2022-09-22T08:40:02.343Z,14.29
2022-09-22T08:45:34.624Z,14.40
2022-09-22T08:51:08.024Z,14.56
2022-09-22T08:56:24.185Z,14.72
2022-09-22T09:01:36.432Z,14.86
2022-09-22T09:06:58.105Z,14.89
2022-09-22T09:12:08.577Z,14.98
2022-09-22T09:17:35.508Z,15.20
2022-09-22T09:22:47.834Z,15.39
2022-09-22T09:28:00.469Z,15.51
2022-09-22T09:33:10.837Z,15.55
2022-09-22T09:38:19.218Z,15.65
2022-09-22T09:43:23.900Z,15.79
2022-09-22T09:48:53.885Z,15.83
2022-09-22T09:53:57.421Z,15.93
2022-09-22T09:59:23.413Z,16.12
2022-09-22T10:04:27.926Z,16.17
2022-09-22T10:09:29.694Z,16.13
2022-09-22T10:14:35.096Z,16.31
2022-09-22T10:19:36.701Z,16.30
2022-09-22T10:24:38.170Z,16.29
2022-09-22T10:29:42.128Z,16.04
2022-09-22T10:34:49.290Z,16.01
2022-09-22T10:39:59.882Z,16.13
2022-09-22T10:45:07.251Z,16.17
2022-09-22T10:50:20.826Z,16.30
2022-09-22T10:55:37.417Z,16.12
2022-09-22T11:00:41.729Z,16.28
2022-09-22T11:06:14.137Z,16.35
2022-09-22T11:11:41.421Z,16.44
2022-09-22T11:16:42.933Z,16.36
2022-09-22T11:21:54.824Z,16.31
2022-09-22T11:26:59.451Z,16.40
2022-09-22T11:32:01.506Z,16.48
2022-09-22T11:37:28.072Z,16.67
2022-09-22T11:42:55.151Z,16.66
2022-09-22T11:48:05.249Z,16.68
2022-09-22T11:53:32.305Z,16.76
2022-09-22T11:58:39.993Z,16.84
2022-09-22T12:03:48.675Z,16.79
2022-09-22T12:09:21.903Z,16.68
2022-09-22T12:14:24.534Z,16.61
2022-09-22T12:19:31.703Z,16.56
2022-09-22T12:24:34.599Z,16.43
2022-09-22T12:29:37.141Z,16.35
2022-09-22T12:34:43.235Z,16.37
2022-09-22T12:39:47.911Z,16.30
2022-09-22T12:44:56.652Z,16.21
2022-09-22T12:50:00.866Z,16.25
2022-09-22T12:55:28.102Z,16.25
2022-09-22T13:00:41.127Z,16.24
2022-09-22T13:05:46.438Z,16.28
2022-09-22T13:11:08.815Z,16.27
2022-09-22T13:16:16.079Z,16.23
2022-09-22T13:21:18.901Z,16.23
2022-09-22T13:26:28.143Z,16.24
2022-09-22T13:31:37.003Z,16.24
2022-09-22T13:36:38.518Z,16.23
2022-09-22T13:41:51.257Z,16.22
2022-09-22T13:46:54.287Z,16.31
2022-09-22T13:51:59.564Z,16.32
2022-09-22T13:57:04.848Z,16.31
2022-09-22T14:02:09.796Z,16.29
2022-09-22T14:07:11.899Z,16.32
2022-09-22T14:12:14.134Z,16.41
2022-09-22T14:17:23.343Z,16.43
2022-09-22T14:22:27.631Z,16.47
2022-09-22T14:27:59.662Z,16.53
2022-09-22T14:33:03.932Z,16.54
2022-09-22T14:38:17.236Z,16.56
2022-09-22T14:43:42.195Z,16.56
2022-09-22T14:48:43.841Z,16.60
2022-09-22T14:54:08.979Z,16.66
2022-09-22T14:59:35.501Z,16.67
2022-09-22T15:04:44.412Z,16.67
2022-09-22T15:09:45.877Z,16.64
2022-09-22T15:14:48.669Z,16.63
2022-09-22T15:19:51.460Z,16.60
2022-09-22T15:24:54.074Z,16.58
2022-09-22T15:29:57.604Z,16.59
2022-09-22T15:35:00.674Z,16.55
2022-09-22T15:40:16.316Z,16.49
2022-09-22T15:45:21.387Z,16.45
2022-09-22T15:50:25.702Z,16.46
2022-09-22T15:55:27.183Z,16.46
2022-09-22T16:00:29.145Z,16.42
2022-09-22T16:05:31.627Z,16.33
2022-09-22T16:10:33.090Z,16.34
2022-09-22T16:15:34.545Z,16.30
2022-09-22T16:20:37.318Z,16.27
2022-09-22T16:25:40.754Z,16.25
2022-09-22T16:30:42.207Z,16.15
2022-09-22T16:35:43.676Z,16.11
2022-09-22T16:40:45.202Z,16.04
2022-09-22T16:46:05.122Z,15.96
2022-09-22T16:51:06.590Z,15.88
2022-09-22T16:56:08.068Z,15.77
2022-09-22T17:01:09.669Z,15.64
2022-09-22T17:06:13.327Z,15.52
2022-09-22T17:11:14.977Z,15.33
2022-09-22T17:16:24.476Z,15.21
2022-09-22T17:21:30.133Z,15.07
2022-09-22T17:26:41.156Z,14.96
2022-09-22T17:31:44.184Z,14.82
2022-09-22T17:36:45.844Z,14.73
2022-09-22T17:41:47.883Z,14.61
2022-09-22T17:47:17.284Z,14.51
2022-09-22T17:52:37.623Z,14.45
2022-09-22T17:57:41.809Z,14.35
2022-09-22T18:02:43.784Z,14.22
2022-09-22T18:07:45.337Z,14.12
2022-09-22T18:12:46.823Z,14.03
2022-09-22T18:17:48.286Z,13.95
2022-09-22T18:22:50.033Z,13.86
2022-09-22T18:27:53.181Z,13.81
2022-09-22T18:32:55.085Z,13.76
2022-09-22T18:37:56.562Z,13.71
2022-09-22T18:42:58.039Z,13.59
2022-09-22T18:48:01.159Z,13.50
2022-09-22T18:53:02.653Z,13.44
2022-09-22T18:58:04.186Z,13.35
2022-09-22T19:03:06.236Z,13.31
2022-09-22T19:08:10.107Z,13.27
2022-09-22T19:13:12.362Z,13.24
2022-09-22T19:18:13.865Z,13.18
2022-09-22T19:23:16.085Z,13.12
2022-09-22T19:28:18.999Z,13.12
2022-09-22T19:33:20.450Z,13.10
2022-09-22T19:38:21.928Z,13.08
2022-09-22T19:43:24.610Z,13.06
2022-09-22T19:48:26.128Z,13.04
2022-09-22T19:53:27.589Z,13.00
2022-09-22T19:58:29.068Z,12.96
2022-09-22T20:03:30.550Z,12.86
2022-09-22T20:08:32.007Z,12.78
2022-09-22T20:13:52.053Z,12.73
2022-09-22T20:18:54.386Z,12.73
2022-09-22T20:23:55.886Z,12.68
2022-09-22T20:28:59.041Z,12.65
2022-09-22T20:34:00.550Z,12.61
2022-09-22T20:39:02.089Z,12.58
2022-09-22T20:44:03.663Z,12.61
2022-09-22T20:49:06.028Z,12.56
2022-09-22T20:54:07.849Z,12.58
2022-09-22T20:59:09.319Z,12.51
2022-09-22T21:04:16.033Z,12.53
2022-09-22T21:09:36.124Z,12.51
2022-09-22T21:14:37.598Z,12.52
2022-09-22T21:19:39.267Z,12.55
2022-09-22T21:24:43.049Z,12.55
2022-09-22T21:29:44.929Z,12.53
2022-09-22T21:34:46.422Z,12.56
2022-09-22T21:39:47.972Z,12.58
2022-09-22T21:44:49.419Z,12.54
2022-09-22T21:49:50.881Z,12.49
2022-09-22T21:54:52.379Z,12.47
2022-09-22T21:59:56.632Z,12.47
2022-09-22T22:04:58.386Z,12.45
2022-09-22T22:09:59.917Z,12.45
2022-09-22T22:15:01.413Z,12.47
2022-09-22T22:20:04.286Z,12.41
2022-09-22T22:25:08.204Z,12.41
2022-09-22T22:30:10.555Z,12.38
2022-09-22T22:35:12.409Z,12.39
2022-09-22T22:40:13.950Z,12.41
2022-09-22T22:45:15.616Z,12.48
2022-09-22T22:50:17.068Z,12.49
2022-09-22T22:55:18.618Z,12.56
2022-09-22T23:00:20.138Z,12.59
2022-09-22T23:05:21.939Z,12.63
2022-09-22T23:10:25.187Z,12.64
2022-09-22T23:15:27.625Z,12.68
2022-09-22T23:20:29.154Z,12.68
2022-09-22T23:25:34.553Z,12.66
2022-09-22T23:30:36.079Z,12.69
2022-09-22T23:35:38.381Z,12.71
2022-09-22T23:40:39.937Z,12.74
2022-09-22T23:45:41.508Z,12.76
2022-09-22T23:50:47.986Z,12.77
2022-09-22T23:55:49.719Z,12.76
